Time;durP1;ratioP1;P1;durP2;ratioP2;P2;SDS_P1;SDS_P2;PMS_P1;PMS_P2;Temp;Humidity;BMP_temperature;BMP_pressure;BME280_temperature;BME280_humidity;BME280_pressure;Samples;Min_cycle;Max_cycle;Signal;HPM_P1;HPM_P2
2023/05/23 00:01:06;;;;;;;0.20;0.20;;;11.90;99.90;;;;;;5068967;28;20300;-77
2023/05/23 00:03:43;;;;;;;1.38;1.38;;;11.90;99.90;;;;;;5051837;28;20017;-76
2023/05/23 00:06:13;;;;;;;0.10;0.10;;;11.90;99.90;;;;;;5069687;28;20032;-76
2023/05/23 00:08:49;;;;;;;0.20;0.20;;;11.90;99.90;;;;;;5056651;28;20033;-76
2023/05/23 00:11:25;;;;;;;0.20;0.20;;;11.90;99.90;;;;;;5052123;28;20049;-75
2023/05/23 00:14:03;;;;;;;0.20;0.20;;;11.80;99.90;;;;;;5088714;28;20017;-76
2023/05/23 00:16:43;;;;;;;0.10;0.10;;;11.80;99.90;;;;;;5087865;28;20051;-76
2023/05/23 00:19:15;;;;;;;1.05;1.05;;;11.80;99.90;;;;;;5049306;28;20059;-75
2023/05/23 00:21:49;;;;;;;0.10;0.10;;;11.70;99.90;;;;;;5067006;28;20024;-76
2023/05/23 00:24:19;;;;;;;0.10;0.10;;;11.60;99.90;;;;;;5066378;28;20035;-76
2023/05/23 00:26:53;;;;;;;0.10;0.10;;;12.10;99.90;;;;;;5067455;28;20123;-76
2023/05/23 00:29:20;;;;;;;0.10;0.10;;;;;;;;;;5068530;28;20052;-76
2023/05/23 00:32:01;;;;;;;51.42;16.77;;;11.60;99.90;;;;;;5074190;28;20276;-76
2023/05/23 00:34:27;;;;;;;0.20;0.20;;;12.60;99.90;;;;;;5073397;28;20103;-75
2023/05/23 00:36:53;;;;;;;0.10;0.10;;;11.60;99.90;;;;;;5069715;28;20489;-77
2023/05/23 00:39:20;;;;;;;0.10;0.10;;;11.50;99.90;;;;;;5071543;28;20061;-77
2023/05/23 00:41:58;;;;;;;0.10;0.10;;;11.60;99.90;;;;;;5073701;28;20020;-76
2023/05/23 00:44:23;;;;;;;0.10;0.10;;;11.50;99.90;;;;;;5066406;28;20028;-75
2023/05/23 00:47:15;;;;;;;0.10;0.10;;;11.50;99.90;;;;;;5077344;28;20047;-76
2023/05/23 00:49:43;;;;;;;0.10;0.10;;;11.50;99.90;;;;;;5085425;28;20044;-76
2023/05/23 00:52:16;;;;;;;0.10;0.10;;;11.50;99.90;;;;;;5084860;28;20056;-77
2023/05/23 00:55:02;;;;;;;0.10;0.10;;;11.50;99.90;;;;;;5068260;28;20048;-76
2023/05/23 00:57:28;;;;;;;0.20;0.20;;;11.50;99.90;;;;;;5085704;28;20042;-75
2023/05/23 01:00:18;;;;;;;0.47;0.47;;;11.50;99.90;;;;;;5086203;28;20021;-75
2023/05/23 01:03:16;;;;;;;0.13;0.13;;;11.50;99.90;;;;;;5031610;28;20036;-76
2023/05/23 01:05:45;;;;;;;0.10;0.10;;;11.50;99.90;;;;;;5011108;28;20068;-76
2023/05/23 01:08:11;;;;;;;2.65;2.55;;;11.40;99.90;;;;;;5004273;28;20038;-76
2023/05/23 01:10:37;;;;;;;0.10;0.10;;;11.40;99.90;;;;;;5003562;28;20096;-76
2023/05/23 01:13:56;;;;;;;0.10;0.10;;;11.40;99.90;;;;;;4988350;28;20479;-76
2023/05/23 01:16:52;;;;;;;0.10;0.10;;;11.40;99.90;;;;;;4927379;29;20561;-76
2023/05/23 01:20:07;;;;;;;1.38;1.30;;;11.30;99.90;;;;;;4910768;29;20020;-77
2023/05/23 01:22:47;;;;;;;0.50;0.50;;;11.30;99.90;;;;;;4908655;29;20024;-76
2023/05/23 01:25:56;;;;;;;0.10;0.10;;;11.80;99.90;;;;;;4927461;29;20435;-76
2023/05/23 01:28:31;;;;;;;0.10;0.10;;;11.20;99.90;;;;;;4923923;29;20036;-75
2023/05/23 01:31:01;;;;;;;0.10;0.10;;;11.20;99.90;;;;;;4909112;29;20044;-76
2023/05/23 01:33:27;;;;;;;0.10;0.10;;;11.20;99.90;;;;;;4916737;29;20036;-76
2023/05/23 01:36:06;;;;;;;0.13;0.13;;;11.00;99.90;;;;;;4927195;29;20046;-75
2023/05/23 01:38:38;;;;;;;0.10;0.10;;;11.00;99.90;;;;;;4930307;29;20051;-77
2023/05/23 01:41:23;;;;;;;0.10;0.10;;;10.90;99.90;;;;;;4917064;29;20044;-76
2023/05/23 01:44:19;;;;;;;0.10;0.10;;;10.90;99.90;;;;;;4887085;29;20104;-76
2023/05/23 01:46:47;;;;;;;0.10;0.10;;;8.40;99.90;;;;;;4978913;28;20032;-75
2023/05/23 01:49:15;;;;;;;0.10;0.10;;;10.80;99.90;;;;;;5061713;28;20644;-76
2023/05/23 01:52:09;;;;;;;0.10;0.10;;;10.80;99.90;;;;;;5074734;28;20041;-75
2023/05/23 01:55:10;;;;;;;0.10;0.10;;;10.80;99.90;;;;;;5070901;28;20033;-76
2023/05/23 01:57:42;;;;;;;0.10;0.10;;;10.50;99.90;;;;;;5073039;28;20055;-76
2023/05/23 02:00:10;;;;;;;0.10;0.10;;;10.10;99.90;;;;;;5074621;28;20017;-76
2023/05/23 02:03:10;;;;;;;0.10;0.10;;;10.90;99.90;;;;;;5050913;28;20013;-76
2023/05/23 02:05:57;;;;;;;0.10;0.10;;;10.80;99.90;;;;;;5031966;28;20042;-77
2023/05/23 02:11:22;;;;;;;0.10;0.10;;;;;;;;;;5029568;28;20562;-76
2023/05/23 02:14:19;;;;;;;0.10;0.10;;;10.90;99.90;;;;;;5032098;28;20061;-76
2023/05/23 02:16:54;;;;;;;0.08;0.08;;;10.80;99.90;;;;;;5031273;28;20053;-76
2023/05/23 02:19:20;;;;;;;0.10;0.10;;;;;;;;;;5029806;28;20261;-76
2023/05/23 02:22:08;;;;;;;0.00;0.00;;;10.80;99.90;;;;;;5030595;28;20052;-75
2023/05/23 02:24:34;;;;;;;0.00;0.00;;;11.10;99.90;;;;;;4965819;28;20584;-76
2023/05/23 02:27:06;;;;;;;1.25;1.25;;;10.80;99.90;;;;;;4975969;28;20051;-76
2023/05/23 02:29:44;;;;;;;0.10;0.10;;;9.60;99.90;;;;;;4954295;28;20098;-76
2023/05/23 02:32:11;;;;;;;0.10;0.10;;;11.30;99.90;;;;;;4985490;28;20119;-76
2023/05/23 02:35:01;;;;;;;0.10;0.10;;;10.70;99.90;;;;;;4985866;28;20061;-74
2023/05/23 02:37:41;;;;;;;0.10;0.10;;;10.70;99.90;;;;;;5015542;28;20029;-76
2023/05/23 02:40:21;;;;;;;0.10;0.10;;;11.40;99.90;;;;;;5000321;28;20030;-76
2023/05/23 02:42:56;;;;;;;0.20;0.20;;;10.60;99.90;;;;;;5012794;28;20026;-75
2023/05/23 02:45:26;;;;;;;0.00;0.00;;;10.50;99.90;;;;;;5015687;28;20038;-76
2023/05/23 02:47:53;;;;;;;0.10;0.10;;;;;;;;;;5014058;28;20026;-76
2023/05/23 02:50:24;;;;;;;0.10;0.10;;;10.50;99.90;;;;;;4998202;28;20034;-76
2023/05/23 02:52:52;;;;;;;0.00;0.00;;;10.50;99.90;;;;;;4975156;28;20051;-76
2023/05/23 02:55:21;;;;;;;0.10;0.10;;;10.50;99.90;;;;;;4989516;28;20401;-76
2023/05/23 02:58:04;;;;;;;0.20;0.20;;;10.50;99.90;;;;;;5016488;28;20014;-76
2023/05/23 03:00:31;;;;;;;0.10;0.10;;;10.50;99.90;;;;;;4973656;28;20113;-76
2023/05/23 03:02:57;;;;;;;0.10;0.10;;;;;;;;;;5019728;28;20022;-76
2023/05/23 03:05:26;;;;;;;0.20;0.20;;;10.40;99.90;;;;;;5019310;28;20053;-77
2023/05/23 03:07:54;;;;;;;0.10;0.10;;;10.50;99.90;;;;;;5013681;28;20093;-76
2023/05/23 03:10:39;;;;;;;0.10;0.10;;;10.50;99.90;;;;;;5016578;28;20119;-76
2023/05/23 03:13:07;;;;;;;0.10;0.10;;;10.40;99.90;;;;;;5018131;28;20044;-76
2023/05/23 03:15:45;;;;;;;0.10;0.10;;;10.40;99.90;;;;;;5016560;28;20026;-76
2023/05/23 03:18:11;;;;;;;0.10;0.10;;;11.00;99.90;;;;;;4994061;28;20037;-75
2023/05/23 03:20:41;;;;;;;0.10;0.10;;;10.50;99.90;;;;;;5011868;28;20123;-76
2023/05/23 03:23:07;;;;;;;0.10;0.10;;;10.30;99.90;;;;;;5011492;28;20033;-76
2023/05/23 03:25:34;;;;;;;0.10;0.10;;;;;;;;;;4996506;28;20040;-77
2023/05/23 03:28:01;;;;;;;0.10;0.10;;;;;;;;;;5012836;28;20323;-76
2023/05/23 03:30:34;;;;;;;0.10;0.10;;;10.20;99.90;;;;;;5014626;28;20025;-75
2023/05/23 03:33:05;;;;;;;0.10;0.10;;;;;;;;;;5012519;28;20093;-76
2023/05/23 03:35:40;;;;;;;0.10;0.10;;;10.30;99.90;;;;;;5008114;28;20031;-76
2023/05/23 03:38:38;;;;;;;0.10;0.10;;;10.70;99.90;;;;;;5013960;28;20094;-76
2023/05/23 03:41:13;;;;;;;0.10;0.10;;;10.50;99.90;;;;;;4996120;28;20046;-76
2023/05/23 03:44:10;;;;;;;0.10;0.10;;;10.40;99.90;;;;;;5027494;28;20037;-76
2023/05/23 03:46:46;;;;;;;0.10;0.10;;;10.40;99.90;;;;;;5070471;28;20024;-76
2023/05/23 03:49:15;;;;;;;0.10;0.10;;;10.90;99.90;;;;;;5073353;28;20032;-76
2023/05/23 03:51:41;;;;;;;0.10;0.10;;;10.40;99.90;;;;;;5052117;28;20052;-76
2023/05/23 03:54:10;;;;;;;0.10;0.10;;;10.40;99.90;;;;;;5051932;28;20225;-76
2023/05/23 03:56:47;;;;;;;0.03;0.03;;;10.90;99.90;;;;;;5066081;28;20032;-76
2023/05/23 03:59:29;;;;;;;0.10;0.10;;;10.70;99.90;;;;;;5083968;28;20039;-76
2023/05/23 04:01:58;;;;;;;0.10;0.10;;;10.50;99.90;;;;;;5083586;28;20032;-76
2023/05/23 04:04:25;;;;;;;0.10;0.10;;;10.50;99.90;;;;;;5079697;28;20385;-76
2023/05/23 04:07:00;;;;;;;0.20;0.20;;;10.40;99.90;;;;;;5075298;28;20029;-76
2023/05/23 04:09:26;;;;;;;0.10;0.10;;;10.50;99.90;;;;;;5054221;28;20060;-76
2023/05/23 04:12:07;;;;;;;0.10;0.10;;;10.40;99.90;;;;;;5067422;28;20047;-76
2023/05/23 04:14:38;;;;;;;0.10;0.10;;;10.60;99.90;;;;;;5052283;28;20024;-76
2023/05/23 04:17:12;;;;;;;0.10;0.10;;;10.40;99.90;;;;;;5086472;28;20044;-76
2023/05/23 04:19:55;;;;;;;0.10;0.10;;;10.40;99.90;;;;;;5086140;28;20037;-76
2023/05/23 04:22:23;;;;;;;0.10;0.10;;;11.00;99.90;;;;;;5026622;28;20034;-76
2023/05/23 04:24:49;;;;;;;0.10;0.10;;;11.10;99.90;;;;;;5062058;28;20021;-77
2023/05/23 04:27:16;;;;;;;0.10;0.10;;;10.40;99.90;;;;;;5071060;28;20051;-77
2023/05/23 04:29:59;;;;;;;0.10;0.10;;;10.40;99.90;;;;;;5089289;28;20028;-76
2023/05/23 04:32:37;;;;;;;0.10;0.10;;;10.40;99.90;;;;;;5072815;28;20032;-77
2023/05/23 04:35:12;;;;;;;0.20;0.20;;;10.60;99.90;;;;;;5054351;28;20025;-76
2023/05/23 04:37:38;;;;;;;0.10;0.10;;;10.60;99.90;;;;;;5071453;28;20021;-76
2023/05/23 04:40:06;;;;;;;0.10;0.10;;;9.90;99.90;;;;;;5070699;28;20241;-76
2023/05/23 04:42:33;;;;;;;0.10;0.10;;;9.90;99.90;;;;;;5073716;28;20089;-77
2023/05/23 04:45:00;;;;;;;0.47;0.47;;;11.30;99.90;;;;;;5054484;28;20017;-76
2023/05/23 04:47:28;;;;;;;0.13;0.13;;;11.10;99.90;;;;;;5058658;28;20028;-76
2023/05/23 04:50:01;;;;;;;0.10;0.10;;;10.90;99.90;;;;;;5031154;28;20040;-75
2023/05/23 04:52:29;;;;;;;3.22;3.13;;;11.00;99.90;;;;;;5066312;28;20071;-76
2023/05/23 04:54:55;;;;;;;3.50;3.40;;;11.10;99.90;;;;;;5072103;28;20115;-77
2023/05/23 04:57:21;;;;;;;0.10;0.10;;;11.20;99.90;;;;;;5048813;28;20024;-76
2023/05/23 04:59:50;;;;;;;0.10;0.10;;;11.30;99.90;;;;;;5073989;28;20024;-75
2023/05/23 05:02:19;;;;;;;0.10;0.10;;;11.50;99.90;;;;;;5082891;28;20702;-75
2023/05/23 05:05:01;;;;;;;0.10;0.10;;;11.50;99.90;;;;;;5066663;28;20080;-76
2023/05/23 05:07:28;;;;;;;2.22;2.17;;;12.10;99.90;;;;;;5067808;28;20032;-76
2023/05/23 05:09:55;;;;;;;0.25;0.25;;;11.70;99.90;;;;;;5049968;28;20031;-76
2023/05/23 05:12:24;;;;;;;3.92;3.67;;;11.80;99.90;;;;;;5051307;28;20078;-76
2023/05/23 05:14:53;;;;;;;0.10;0.10;;;11.90;99.90;;;;;;5068280;28;20088;-77
2023/05/23 05:17:23;;;;;;;0.20;0.20;;;12.10;99.90;;;;;;5066345;28;20021;-76
2023/05/23 05:19:53;;;;;;;0.10;0.10;;;12.20;99.90;;;;;;5065662;28;20017;-77
2023/05/23 05:22:19;;;;;;;0.20;0.20;;;12.30;99.90;;;;;;5075207;28;20079;-75
2023/05/23 05:25:11;;;;;;;4.60;4.28;;;12.30;99.90;;;;;;5073578;28;20093;-77
2023/05/23 05:27:38;;;;;;;0.20;0.20;;;12.40;99.90;;;;;;5059364;28;20024;-77
2023/05/23 05:30:08;;;;;;;0.20;0.20;;;12.60;99.90;;;;;;5066560;28;20020;-76
2023/05/23 05:32:34;;;;;;;0.17;0.17;;;12.60;99.90;;;;;;5067413;28;20021;-76
2023/05/23 05:35:07;;;;;;;0.20;0.20;;;12.70;99.90;;;;;;5068719;28;20039;-76
2023/05/23 05:37:33;;;;;;;;;;;12.60;99.90;;;;;;5063495;28;20033;-76
2023/05/23 05:40:38;;;;;;;0.20;0.20;;;12.70;99.90;;;;;;5060335;28;19940;-77
2023/05/23 05:43:05;;;;;;;1.10;1.10;;;12.80;99.90;;;;;;5049501;28;20040;-85
2023/05/23 05:45:33;;;;;;;0.30;0.30;;;12.90;99.90;;;;;;5044595;28;20056;-76
2023/05/23 05:48:24;;;;;;;0.40;0.40;;;13.00;99.90;;;;;;5043092;28;20017;-75
2023/05/23 05:50:51;;;;;;;0.10;0.10;;;13.20;99.90;;;;;;5045897;28;20226;-77
2023/05/23 05:53:17;;;;;;;0.20;0.20;;;13.30;99.90;;;;;;5030976;28;20037;-77
2023/05/23 05:55:58;;;;;;;0.20;0.20;;;13.30;99.90;;;;;;5051080;28;20025;-75
2023/05/23 05:58:31;;;;;;;0.15;0.15;;;13.50;99.90;;;;;;5042487;28;20061;-78
2023/05/23 06:01:14;;;;;;;0.20;0.20;;;14.00;99.90;;;;;;5049001;28;20044;-84
2023/05/23 06:03:43;;;;;;;0.20;0.20;;;13.70;99.90;;;;;;5043249;28;20037;-78
2023/05/23 06:06:09;;;;;;;0.25;0.25;;;13.90;99.90;;;;;;5024468;28;20025;-75
2023/05/23 06:08:38;;;;;;;0.20;0.20;;;13.90;99.90;;;;;;5027597;28;20032;-83
2023/05/23 06:11:04;;;;;;;0.20;0.20;;;14.40;99.90;;;;;;5028596;28;20116;-76
2023/05/23 06:13:29;;;;;;;0.20;0.20;;;14.10;99.90;;;;;;5036276;28;20073;-76
2023/05/23 06:15:55;;;;;;;0.20;0.20;;;14.40;99.90;;;;;;5033595;28;20025;-75
2023/05/23 06:18:21;;;;;;;0.20;0.20;;;14.50;99.90;;;;;;5054330;28;20522;-88
2023/05/23 06:20:47;;;;;;;0.20;0.20;;;14.50;99.90;;;;;;5066687;28;20096;-76
2023/05/23 06:23:13;;;;;;;0.20;0.20;;;14.60;99.90;;;;;;5064853;28;20122;-76
2023/05/23 06:25:39;;;;;;;0.63;0.63;;;14.80;99.90;;;;;;5067928;28;20083;-76
2023/05/23 06:28:05;;;;;;;0.20;0.20;;;14.90;99.90;;;;;;5063530;28;20029;-89
2023/05/23 06:30:31;;;;;;;0.20;0.20;;;15.60;99.90;;;;;;5072189;28;20021;-89
2023/05/23 06:32:56;;;;;;;1.13;1.02;;;15.10;99.90;;;;;;5076051;28;20590;-85
2023/05/23 06:35:22;;;;;;;0.20;0.20;;;15.20;99.90;;;;;;5068143;28;20630;-76
2023/05/23 06:37:49;;;;;;;0.95;0.95;;;15.30;99.90;;;;;;5067370;28;20190;-77
2023/05/23 06:40:15;;;;;;;0.20;0.20;;;15.50;99.90;;;;;;5077413;28;20028;-79
2023/05/23 06:42:42;;;;;;;0.20;0.20;;;15.60;99.90;;;;;;5077772;28;20040;-81
2023/05/23 06:45:09;;;;;;;0.32;0.32;;;15.70;99.90;;;;;;5068024;28;20020;-93
2023/05/23 06:47:35;;;;;;;0.17;0.17;;;15.80;99.90;;;;;;5036459;28;20064;-78
2023/05/23 06:50:02;;;;;;;0.20;0.20;;;15.80;99.90;;;;;;5067007;28;20021;-79
2023/05/23 06:52:30;;;;;;;2.83;1.75;;;15.90;99.90;;;;;;5070692;28;20040;-80
2023/05/23 06:54:58;;;;;;;0.20;0.20;;;16.00;99.90;;;;;;5052952;28;20149;-94
2023/05/23 06:57:24;;;;;;;0.15;0.15;;;16.10;99.90;;;;;;5071448;28;20028;-76
2023/05/23 07:00:05;;;;;;;0.40;0.40;;;16.20;99.90;;;;;;5077023;28;20024;-79
2023/05/23 07:02:32;;;;;;;0.10;0.10;;;16.20;99.90;;;;;;5081448;28;20043;-79
2023/05/23 07:05:04;;;;;;;0.20;0.20;;;17.00;99.90;;;;;;5081540;28;20250;-86
2023/05/23 07:07:29;;;;;;;0.25;0.25;;;16.40;99.90;;;;;;5078743;28;20019;-75
2023/05/23 07:09:55;;;;;;;2.63;2.47;;;16.50;99.90;;;;;;5059213;28;20104;-74
2023/05/23 07:12:34;;;;;;;0.28;0.28;;;16.50;99.90;;;;;;5065312;28;20029;-74
2023/05/23 07:15:13;;;;;;;0.20;0.20;;;16.70;99.90;;;;;;5065924;28;20025;-74
2023/05/23 07:17:49;;;;;;;0.73;0.73;;;15.40;99.90;;;;;;5068237;28;20217;-75
2023/05/23 07:20:14;;;;;;;0.82;0.82;;;15.80;99.90;;;;;;5069801;28;20024;-77
2023/05/23 07:22:46;;;;;;;0.22;0.22;;;17.10;99.90;;;;;;5070774;28;20119;-77
2023/05/23 07:25:12;;;;;;;1.98;1.98;;;;;;;;;;5069071;28;20604;-75
2023/05/23 07:27:40;;;;;;;0.15;0.15;;;17.60;99.90;;;;;;5050442;28;20763;-81
2023/05/23 07:30:08;;;;;;;0.10;0.10;;;18.00;99.90;;;;;;5072638;28;20038;-77
2023/05/23 07:32:39;;;;;;;0.13;0.13;;;18.80;99.90;;;;;;5058952;28;20013;-75
2023/05/23 07:35:09;;;;;;;0.52;0.52;;;18.30;99.90;;;;;;5079669;28;20214;-77
2023/05/23 07:37:43;;;;;;;0.30;0.30;;;;;;;;;;5076364;28;20011;-76
2023/05/23 07:40:13;;;;;;;0.17;0.17;;;18.20;99.90;;;;;;5053538;28;20033;-85
2023/05/23 07:42:53;;;;;;;0.10;0.10;;;18.10;99.90;;;;;;5086954;28;20039;-77
2023/05/23 07:45:18;;;;;;;0.10;0.10;;;18.20;99.90;;;;;;5086432;28;20080;-76
2023/05/23 07:47:48;;;;;;;2.20;2.10;;;18.50;99.90;;;;;;5078259;28;20592;-73
2023/05/23 07:50:38;;;;;;;7.13;3.30;;;18.70;99.90;;;;;;5092571;28;20021;-74
2023/05/23 07:53:28;;;;;;;0.10;0.10;;;18.90;99.90;;;;;;5068082;28;20150;-81
2023/05/23 07:55:54;;;;;;;0.10;0.10;;;18.80;99.90;;;;;;5070216;28;20233;-76
2023/05/23 07:58:22;;;;;;;0.17;0.17;;;18.80;99.90;;;;;;5069881;28;20021;-78
2023/05/23 08:00:56;;;;;;;0.20;0.20;;;19.60;99.90;;;;;;5072599;28;20013;-76
2023/05/23 08:03:31;;;;;;;0.10;0.10;;;21.80;99.90;;;;;;5073560;28;20028;-77
2023/05/23 08:05:57;;;;;;;0.10;0.10;;;19.20;99.90;;;;;;5067565;28;20016;-77
2023/05/23 08:08:23;;;;;;;0.75;0.75;;;20.70;99.90;;;;;;5064212;28;20566;-77
2023/05/23 08:10:49;;;;;;;0.10;0.10;;;19.70;99.90;;;;;;5070872;28;20090;-77
2023/05/23 08:13:20;;;;;;;0.10;0.10;;;19.60;99.90;;;;;;5065750;28;20084;-77
2023/05/23 08:15:55;;;;;;;0.63;0.57;;;20.50;99.90;;;;;;5067811;28;20029;-76
2023/05/23 08:18:21;;;;;;;0.20;0.20;;;19.80;99.90;;;;;;5047699;28;20032;-77
2023/05/23 08:20:48;;;;;;;0.17;0.17;;;20.00;99.90;;;;;;5074527;28;20027;-76
2023/05/23 08:23:14;;;;;;;0.20;0.20;;;20.20;99.90;;;;;;5047421;28;20040;-78
2023/05/23 08:25:43;;;;;;;0.30;0.30;;;;;;;;;;5065022;28;20064;-76
2023/05/23 08:28:10;;;;;;;0.20;0.20;;;20.30;99.90;;;;;;5069238;28;20068;-75
2023/05/23 08:30:36;;;;;;;0.10;0.10;;;20.80;99.90;;;;;;5068718;28;20260;-75
2023/05/23 08:33:05;;;;;;;5.53;1.60;;;20.60;99.90;;;;;;5030518;28;20028;-75
2023/05/23 08:35:35;;;;;;;0.50;0.50;;;20.50;99.90;;;;;;5061209;28;20016;-75
2023/05/23 08:38:14;;;;;;;0.20;0.20;;;21.10;99.90;;;;;;5059686;28;20047;-76
2023/05/23 08:40:48;;;;;;;0.10;0.10;;;20.80;99.90;;;;;;5077463;28;20651;-75
2023/05/23 08:43:23;;;;;;;1.55;1.30;;;20.90;99.90;;;;;;5077634;28;20044;-75
2023/05/23 08:45:57;;;;;;;0.20;0.20;;;21.10;99.90;;;;;;5076442;28;20029;-78
2023/05/23 08:48:27;;;;;;;0.15;0.15;;;21.40;99.90;;;;;;5046770;28;20348;-77
2023/05/23 08:50:53;;;;;;;0.38;0.38;;;21.00;99.90;;;;;;5061696;28;20103;-84
2023/05/23 08:53:22;;;;;;;0.10;0.10;;;21.70;99.90;;;;;;5059790;28;20304;-75
2023/05/23 08:55:53;;;;;;;0.10;0.10;;;22.00;99.90;;;;;;5059631;28;20047;-74
2023/05/23 08:58:19;;;;;;;0.10;0.10;;;21.10;99.90;;;;;;5059802;28;20005;-74
2023/05/23 09:00:46;;;;;;;0.22;0.22;;;22.10;99.90;;;;;;5043467;28;20024;-90
2023/05/23 09:03:13;;;;;;;1.45;1.45;;;21.90;99.90;;;;;;5062277;28;20104;-82
2023/05/23 09:05:39;;;;;;;0.40;0.40;;;22.20;99.90;;;;;;5062386;28;20020;-81
2023/05/23 09:08:05;;;;;;;0.10;0.10;;;22.40;99.90;;;;;;5044665;28;20063;-87
2023/05/23 09:10:30;;;;;;;0.10;0.10;;;22.50;99.90;;;;;;5062446;28;20060;-89
2023/05/23 09:12:57;;;;;;;0.10;0.10;;;22.50;99.70;;;;;;5062588;28;20009;-75
2023/05/23 09:15:26;;;;;;;0.20;0.20;;;25.50;99.90;;;;;;5062270;28;20035;-76
2023/05/23 09:18:02;;;;;;;0.22;0.22;;;22.60;99.80;;;;;;5061445;28;20021;-88
2023/05/23 09:20:28;;;;;;;0.20;0.20;;;22.70;99.60;;;;;;5061232;28;20016;-85
2023/05/23 09:22:55;;;;;;;1.05;1.00;;;22.70;99.70;;;;;;5060529;28;20032;-75
2023/05/23 09:25:21;;;;;;;0.22;0.22;;;22.70;99.50;;;;;;5060161;28;20040;-82
2023/05/23 09:27:47;;;;;;;0.30;0.30;;;22.70;99.90;;;;;;5060223;28;20021;-79
2023/05/23 09:30:14;;;;;;;0.20;0.20;;;22.90;99.70;;;;;;5062548;28;20024;-81
2023/05/23 09:32:41;;;;;;;0.65;0.65;;;23.20;98.70;;;;;;5061286;28;20009;-82
2023/05/23 09:35:11;;;;;;;0.10;0.10;;;23.20;98.20;;;;;;5060200;28;20368;-74
2023/05/23 09:37:39;;;;;;;0.20;0.20;;;23.20;98.70;;;;;;5061193;28;20024;-81
2023/05/23 09:40:09;;;;;;;0.10;0.10;;;23.40;98.20;;;;;;5042248;28;20020;-74
2023/05/23 09:42:40;;;;;;;0.55;0.40;;;23.30;97.40;;;;;;5062678;28;20035;-76
2023/05/23 09:45:06;;;;;;;0.55;0.55;;;23.40;97.30;;;;;;5063317;28;20066;-78
2023/05/23 09:47:32;;;;;;;0.20;0.20;;;23.60;97.00;;;;;;5064137;28;20028;-87
2023/05/23 09:50:00;;;;;;;0.10;0.10;;;23.80;96.40;;;;;;5068021;28;20028;-78
2023/05/23 09:52:39;;;;;;;0.60;0.60;;;23.80;96.70;;;;;;5064363;28;20157;-75
2023/05/23 09:55:05;;;;;;;0.52;0.52;;;24.00;95.70;;;;;;5053229;28;20084;-85
2023/05/23 09:57:36;;;;;;;0.45;0.45;;;23.80;96.00;;;;;;5068868;28;20020;-86
2023/05/23 10:00:12;;;;;;;0.43;0.43;;;23.90;96.00;;;;;;5080768;28;20020;-83
2023/05/23 10:02:54;;;;;;;0.10;0.10;;;24.10;97.30;;;;;;5078777;28;20040;-76
2023/05/23 10:05:37;;;;;;;0.15;0.15;;;24.40;96.30;;;;;;5068863;28;20020;-83
2023/05/23 10:08:09;;;;;;;0.20;0.20;;;24.60;95.10;;;;;;5055291;28;20035;-83
2023/05/23 10:11:07;;;;;;;0.10;0.10;;;24.90;93.60;;;;;;5051431;28;20025;-79
2023/05/23 10:13:33;;;;;;;0.28;0.28;;;24.90;93.10;;;;;;5038085;28;20022;-90
2023/05/23 10:16:11;;;;;;;0.10;0.10;;;24.80;92.80;;;;;;5073589;28;20067;-76
2023/05/23 10:18:45;;;;;;;0.10;0.10;;;22.00;92.20;;;;;;5073617;28;20021;-75
2023/05/23 10:21:24;;;;;;;0.40;0.40;;;24.90;92.90;;;;;;5065137;28;20068;-89
2023/05/23 10:23:50;;;;;;;0.10;0.10;;;25.00;93.30;;;;;;5070910;28;20088;-81
2023/05/23 10:26:17;;;;;;;1.13;1.08;;;25.50;91.30;;;;;;5072349;28;20044;-94
2023/05/23 10:28:44;;;;;;;0.80;0.80;;;25.30;87.10;;;;;;5047785;28;20029;-75
2023/05/23 10:31:11;;;;;;;1.40;1.10;;;25.50;87.50;;;;;;5069570;28;20092;-83
2023/05/23 10:33:42;;;;;;;1.20;1.13;;;25.70;80.50;;;;;;5047490;28;20382;-88
2023/05/23 10:36:21;;;;;;;0.38;0.30;;;25.90;77.30;;;;;;5074802;28;20016;-87
2023/05/23 10:38:59;;;;;;;0.50;0.50;;;26.30;77.30;;;;;;5074835;28;20025;-89
2023/05/23 10:41:33;;;;;;;0.10;0.10;;;26.70;79.00;;;;;;5066403;28;20043;-81
2023/05/23 10:44:13;;;;;;;1.60;0.32;;;27.00;72.70;;;;;;5058488;28;20029;-76
2023/05/23 10:46:57;;;;;;;0.20;0.20;;;26.90;73.10;;;;;;5052514;28;20024;-90
2023/05/23 10:49:53;;;;;;;0.10;0.10;;;26.60;68.70;;;;;;5072264;28;20035;-80
2023/05/23 10:52:20;;;;;;;0.55;0.52;;;26.40;66.00;;;;;;5043455;28;20037;-74
2023/05/23 10:54:51;;;;;;;0.10;0.10;;;26.90;67.90;;;;;;5067163;28;20310;-74
2023/05/23 10:57:28;;;;;;;0.10;0.10;;;27.20;66.20;;;;;;5046474;28;20305;-75
2023/05/23 10:59:54;;;;;;;0.10;0.10;;;27.20;65.00;;;;;;5052097;28;20116;-76
2023/05/23 11:02:26;;;;;;;0.45;0.45;;;27.40;66.90;;;;;;5071345;28;20119;-75
2023/05/23 11:05:15;;;;;;;0.10;0.10;;;27.70;65.50;;;;;;5064965;28;20020;-75
2023/05/23 11:07:41;;;;;;;0.10;0.10;;;28.00;65.10;;;;;;5066211;28;20712;-74
2023/05/23 11:10:13;;;;;;;0.10;0.10;;;28.40;64.50;;;;;;5043969;28;20097;-75
2023/05/23 11:12:41;;;;;;;0.10;0.10;;;28.40;63.60;;;;;;5042887;28;20048;-75
2023/05/23 11:15:16;;;;;;;0.10;0.10;;;28.70;63.00;;;;;;5068458;28;20024;-92
2023/05/23 11:18:05;;;;;;;0.50;0.50;;;28.90;61.60;;;;;;5066032;28;20025;-81
2023/05/23 11:20:43;;;;;;;0.30;0.30;;;28.90;60.10;;;;;;5068040;28;20624;-89
2023/05/23 11:23:12;;;;;;;0.90;0.75;;;28.60;62.70;;;;;;5067239;28;20035;-86
2023/05/23 11:25:58;;;;;;;0.20;0.20;;;29.50;62.00;;;;;;5065328;28;20534;-80
2023/05/23 11:28:25;;;;;;;0.45;0.35;;;29.50;58.20;;;;;;5062366;28;20047;-81
2023/05/23 11:30:51;;;;;;;0.10;0.10;;;30.10;59.70;;;;;;5062130;28;20700;-75
2023/05/23 11:33:20;;;;;;;0.32;0.32;;;30.30;57.60;;;;;;5063453;28;20021;-77
2023/05/23 11:35:48;;;;;;;0.10;0.10;;;30.80;56.70;;;;;;5062368;28;20106;-84
2023/05/23 11:38:18;;;;;;;0.57;0.30;;;30.80;55.30;;;;;;5031099;28;20020;-94
2023/05/23 11:40:46;;;;;;;0.10;0.10;;;31.50;58.10;;;;;;5065716;28;20016;-87
2023/05/23 11:43:21;;;;;;;0.43;0.43;;;31.60;57.20;;;;;;5065716;28;20722;-89
2023/05/23 11:45:52;;;;;;;0.10;0.10;;;32.10;58.10;;;;;;5063837;28;20020;-74
2023/05/23 11:48:19;;;;;;;0.38;0.35;;;32.30;61.40;;;;;;5064242;28;20107;-90
2023/05/23 11:50:52;;;;;;;0.50;0.50;;;32.50;58.00;;;;;;5048030;28;20017;-96
2023/05/23 11:53:24;;;;;;;0.57;0.57;;;32.10;58.40;;;;;;5066421;28;20042;-87
2023/05/23 11:56:08;;;;;;;1.67;1.38;;;31.60;60.50;;;;;;5046375;28;20620;-89
2023/05/23 11:58:38;;;;;;;0.20;0.20;;;30.50;59.10;;;;;;5066231;28;20028;-87
2023/05/23 12:01:06;;;;;;;0.10;0.10;;;32.00;62.80;;;;;;5062551;28;20016;-75
2023/05/23 12:03:34;;;;;;;1.35;1.23;;;28.60;63.40;;;;;;5047484;28;20037;-82
2023/05/23 12:06:01;;;;;;;0.10;0.10;;;28.20;65.40;;;;;;5061549;28;20032;-79
2023/05/23 12:08:27;;;;;;;0.25;0.25;;;27.90;64.60;;;;;;5060993;28;20071;-79
2023/05/23 12:10:56;;;;;;;0.95;0.50;;;27.80;63.20;;;;;;5061202;28;20025;-77
2023/05/23 12:13:29;;;;;;;0.20;0.20;;;27.60;62.20;;;;;;5060821;28;20044;-79
2023/05/23 12:15:56;;;;;;;0.10;0.10;;;28.00;70.70;;;;;;5060995;28;20016;-85
2023/05/23 12:18:22;;;;;;;0.20;0.20;;;27.70;74.60;;;;;;5060667;28;20689;-75
2023/05/23 12:20:50;;;;;;;0.25;0.25;;;28.20;73.10;;;;;;5043127;28;20534;-76
2023/05/23 12:23:21;;;;;;;0.40;0.20;;;30.20;74.20;;;;;;5055599;28;20036;-86
2023/05/23 12:25:55;;;;;;;0.30;0.30;;;29.80;70.50;;;;;;5073791;28;20048;-81
2023/05/23 12:28:42;;;;;;;3.90;2.78;;;30.70;69.10;;;;;;5048756;28;20103;-77
2023/05/23 12:31:12;;;;;;;5.07;3.03;;;31.70;65.30;;;;;;5063811;28;20036;-75
2023/05/23 12:33:46;;;;;;;0.52;0.47;;;32.70;64.20;;;;;;5062983;28;20047;-79
2023/05/23 12:36:13;;;;;;;0.20;0.20;;;33.30;60.60;;;;;;5065535;28;20017;-87
2023/05/23 12:38:39;;;;;;;0.20;0.20;;;33.80;60.20;;;;;;5065788;28;20073;-79
2023/05/23 12:41:12;;;;;;;0.60;0.22;;;33.90;60.20;;;;;;5047876;28;20012;-87
2023/05/23 12:43:54;;;;;;;0.15;0.15;;;34.00;58.60;;;;;;5063958;28;20024;-78
2023/05/23 12:46:20;;;;;;;0.38;0.38;;;34.40;57.20;;;;;;5028442;28;20032;-81
2023/05/23 12:48:46;;;;;;;0.25;0.20;;;34.90;58.40;;;;;;5061610;28;20122;-76
2023/05/23 12:51:13;;;;;;;0.30;0.30;;;34.90;56.00;;;;;;5041947;28;20086;-86
2023/05/23 12:53:39;;;;;;;0.40;0.40;;;34.90;55.30;;;;;;5062770;28;20123;-88
2023/05/23 12:56:05;;;;;;;0.10;0.10;;;35.80;54.00;;;;;;5062863;28;20078;-81
2023/05/23 12:58:31;;;;;;;0.52;0.45;;;36.40;53.80;;;;;;5062524;28;20676;-75
2023/05/23 13:00:57;;;;;;;0.52;0.40;;;36.40;52.60;;;;;;5060804;28;20020;-75
2023/05/23 13:03:24;;;;;;;0.10;0.10;;;36.90;52.60;;;;;;5063759;28;20118;-88
2023/05/23 13:05:50;;;;;;;0.50;0.47;;;37.40;52.50;;;;;;5063567;28;20017;-85
2023/05/23 13:08:17;;;;;;;0.93;0.55;;;37.90;52.00;;;;;;5063218;28;20016;-87
2023/05/23 13:10:43;;;;;;;0.55;0.52;;;38.40;51.30;;;;;;5043354;28;20055;-75
2023/05/23 13:13:09;;;;;;;0.43;0.38;;;38.40;49.40;;;;;;5045247;28;20048;-82
2023/05/23 13:15:36;;;;;;;0.52;0.30;;;38.50;48.90;;;;;;5062112;28;20016;-77
2023/05/23 13:18:02;;;;;;;0.20;0.20;;;38.40;48.30;;;;;;5060973;28;20074;-76
2023/05/23 13:20:31;;;;;;;0.63;0.25;;;37.60;48.10;;;;;;5059999;28;20142;-77